Akron Canton Regional Airport
KCAK : now visible

Airfield :











YOU CAN JOIN US ON...

 
LOGIN :

Register | Disclaimer

   EN    FR    IT 

 









Legend :    VFR   Marginal VFR   IFR   Intensive IFR   Very Intensive IFR
Visi :
Ceiling :
>= 8 km
>= 3000ft
5 to 8 km
1000 to 3000 ft
1500m to 5 km
500 to 1000 ft
800 to 1500m
200 to 500 ft
< 800m
< 200 ft
Symbols :   Thunderstorms  Fog  Heavy snow  Heavy precipitations  Wind > 20 kt






- Airport Elevation : 1228 ft
- IATA code : CAK


KCAK - Akron Canton Regional

CURRENT METAR :
  • 291851Z 24010KT 2SM BR OVC005 06/04 A3004 RMK AO2 SFC VIS 3 SLP177 T00610044 $

EXPIRED METARs :
  • 291751Z 24013G18KT 2SM BR OVC005 06/04 A3004 RMK AO2 SLP179 60003 T00610044 10061 20050 58010 $
  • 291651Z 23012KT 1 1/2SM BR OVC005 06/04 A3006 RMK AO2 SLP188 T00560044 $
  • 291637Z 23012KT 1 1/2SM BR OVC005 06/04 A3007 RMK AO2 TWR VIS 2 T00560039 $

TAF KCAK
Valid from the 29 at 18:00 until the 30 at 18:00 UTC


291731Z 2918/3018 23012KT 4SM BR OVC005
TEMPO 2918/2922 2SM -DZ BR OVC003
FM292200 31007KT 3SM BR VCSH OVC005
FM300900 VRB04KT 2SM -SHSN BR OVC007
KZOB FIR / North America



MET'MAP, your aeronautical weather chart ! - Copyright ORBIFLY December 2007 - Disclaimer

ORBIFLY MET'MAP TEAM :

Programming & Development : Alexandra Zaïnal
Original concept : Baudouin d'Aumeries
Technical & hardware support : Manuel Goepfert
Assistance : Marc-Olivier Méhu




SOURCES & CREDITS :

   NOAA       Earth
Advisory